Time;durP1;ratioP1;P1;durP2;ratioP2;P2;SDS_P1;SDS_P2;PMS_P1;PMS_P2;Temp;Humidity;BMP_temperature;BMP_pressure;BME280_temperature;BME280_humidity;BME280_pressure;Samples;Min_cycle;Max_cycle;Signal;HPM_P1;HPM_P2
2022/06/24 00:01:33;;;;;;;4.60;3.00;;;21.00;99.90;;;;;;6138276;23;20434;-90
2022/06/24 00:03:59;;;;;;;5.68;3.30;;;21.10;99.90;;;;;;6141359;23;20063;-90
2022/06/24 00:06:40;;;;;;;5.15;3.40;;;21.10;99.90;;;;;;6136330;23;20016;-90
2022/06/24 00:09:07;;;;;;;3.70;2.83;;;21.00;99.90;;;;;;6189583;23;20047;-89
2022/06/24 00:11:34;;;;;;;6.18;3.00;;;20.90;99.90;;;;;;6113984;23;20017;-89
2022/06/24 00:14:08;;;;;;;4.45;3.28;;;20.80;99.90;;;;;;6138106;23;20024;-90
2022/06/24 00:17:00;;;;;;;3.43;2.80;;;20.80;99.90;;;;;;6160783;23;20386;-90
2022/06/24 00:19:28;;;;;;;4.70;2.92;;;20.70;99.90;;;;;;6158932;23;20088;-90
2022/06/24 00:22:12;;;;;;;4.15;3.28;;;20.60;99.90;;;;;;6136947;23;20076;-90
2022/06/24 00:24:40;;;;;;;4.30;3.30;;;20.50;99.90;;;;;;6134922;23;20062;-90
2022/06/24 00:27:18;;;;;;;5.65;3.40;;;20.40;99.90;;;;;;6141268;23;20024;-91
2022/06/24 00:29:44;;;;;;;4.13;3.10;;;20.30;99.90;;;;;;6166927;23;20060;-90
2022/06/24 00:32:10;;;;;;;3.75;3.05;;;20.00;99.90;;;;;;6176805;23;20013;-90
2022/06/24 00:34:38;;;;;;;3.65;3.13;;;20.00;99.90;;;;;;6119365;23;20013;-90
2022/06/24 00:37:28;;;;;;;3.72;3.20;;;20.00;99.90;;;;;;6164548;23;20013;-89
2022/06/24 00:40:11;;;;;;;4.65;2.80;;;20.00;99.90;;;;;;6160369;23;20020;-89
2022/06/24 00:42:38;;;;;;;5.78;3.35;;;19.90;99.90;;;;;;6163297;23;20473;-90
2022/06/24 00:45:20;;;;;;;4.00;3.47;;;19.80;99.90;;;;;;6138168;23;20426;-89
2022/06/24 00:47:48;;;;;;;5.03;4.00;;;19.70;99.90;;;;;;6162751;23;20017;-90
2022/06/24 00:50:23;;;;;;;8.55;3.83;;;19.70;99.90;;;;;;6174952;23;20040;-90
2022/06/24 00:52:57;;;;;;;5.00;3.67;;;19.80;99.90;;;;;;6168988;23;20052;-90
2022/06/24 00:55:34;;;;;;;5.05;4.03;;;19.70;99.90;;;;;;6167512;23;20405;-90
2022/06/24 00:58:01;;;;;;;4.35;3.67;;;19.50;99.90;;;;;;6163446;23;20085;-89
2022/06/24 01:00:30;;;;;;;8.65;5.05;;;19.50;99.90;;;;;;6138267;23;20013;-90
2022/06/24 01:03:02;;;;;;;7.05;4.50;;;19.40;99.90;;;;;;6165838;23;20021;-90
2022/06/24 01:05:29;;;;;;;6.78;4.35;;;19.40;99.90;;;;;;6166842;23;20025;-90
2022/06/24 01:07:56;;;;;;;4.50;3.67;;;19.40;99.90;;;;;;6135537;23;20017;-90
2022/06/24 01:10:27;;;;;;;6.38;3.97;;;19.40;99.90;;;;;;6160630;23;20032;-91
2022/06/24 01:12:56;;;;;;;5.20;3.60;;;19.40;99.90;;;;;;6137398;23;20013;-90
2022/06/24 01:15:22;;;;;;;4.43;3.70;;;19.40;99.90;;;;;;6160972;23;20013;-90
2022/06/24 01:17:50;;;;;;;5.38;3.45;;;19.30;99.90;;;;;;6112292;23;20017;-89
2022/06/24 01:20:17;;;;;;;4.15;3.17;;;19.30;99.90;;;;;;6165453;23;20016;-91
2022/06/24 01:26:08;;;;;;;4.28;3.20;;;19.20;99.90;;;;;;6177792;23;20097;-90
2022/06/24 01:28:37;;;;;;;3.78;2.80;;;19.10;99.90;;;;;;6064567;23;20013;-90
2022/06/24 01:31:03;;;;;;;4.15;2.97;;;19.10;99.90;;;;;;6083264;23;20194;-91
2022/06/24 01:33:28;;;;;;;3.85;3.10;;;19.00;99.90;;;;;;6085397;23;20076;-90
2022/06/24 01:35:57;;;;;;;3.58;3.17;;;18.90;99.90;;;;;;6108526;23;20081;-90
2022/06/24 01:38:25;;;;;;;3.53;3.00;;;18.60;99.90;;;;;;6083344;23;20072;-90
2022/06/24 01:40:51;;;;;;;4.93;3.17;;;18.30;99.90;;;;;;6080417;23;20602;-91
2022/06/24 01:43:17;;;;;;;5.13;3.83;;;18.00;99.90;;;;;;6082081;23;20096;-91
2022/06/24 01:45:42;;;;;;;3.53;3.10;;;17.80;99.90;;;;;;6056467;23;20017;-90
2022/06/24 01:48:08;;;;;;;3.92;3.42;;;17.70;99.90;;;;;;6081433;23;20018;-91
2022/06/24 01:50:34;;;;;;;5.18;3.60;;;17.60;99.90;;;;;;6081326;23;20452;-90
2022/06/24 01:53:00;;;;;;;4.75;3.47;;;17.60;99.90;;;;;;6105219;23;20171;-89
2022/06/24 01:55:26;;;;;;;4.85;3.38;;;17.60;99.90;;;;;;6082544;23;20528;-90
2022/06/24 01:57:51;;;;;;;5.25;3.47;;;17.70;99.90;;;;;;6060380;23;20039;-90
2022/06/24 02:00:18;;;;;;;4.47;3.38;;;17.60;99.90;;;;;;6080822;23;20488;-89
2022/06/24 02:02:49;;;;;;;4.40;3.60;;;17.70;99.90;;;;;;6056858;23;20372;-89
2022/06/24 02:05:15;;;;;;;4.47;3.72;;;17.60;99.90;;;;;;6106817;23;20018;-90
2022/06/24 02:07:41;;;;;;;5.45;3.80;;;17.50;99.90;;;;;;6068007;23;20013;-90
2022/06/24 02:15:39;;;;;;;4.63;3.88;;;17.20;99.90;;;;;;6145896;23;20087;-91
2022/06/24 02:18:06;;;;;;;3.90;3.60;;;17.20;99.90;;;;;;6114161;23;20017;-89
2022/06/24 02:20:32;;;;;;;5.13;3.70;;;17.30;99.90;;;;;;6145289;23;20027;-91
2022/06/24 02:22:58;;;;;;;4.28;3.30;;;17.40;99.90;;;;;;6118371;23;20013;-90
2022/06/24 02:25:26;;;;;;;6.15;3.90;;;17.50;99.90;;;;;;6146874;23;20032;-90
2022/06/24 02:27:52;;;;;;;3.88;3.45;;;17.50;99.90;;;;;;6129437;23;20016;-90
2022/06/24 02:30:20;;;;;;;4.35;3.63;;;17.50;99.90;;;;;;6143467;23;20075;-90
2022/06/24 02:32:50;;;;;;;3.97;3.58;;;17.50;99.90;;;;;;6167117;23;20053;-89
2022/06/24 02:35:16;;;;;;;5.95;3.53;;;17.40;99.90;;;;;;6134300;23;20095;-87
2022/06/24 02:37:42;;;;;;;4.13;3.72;;;17.40;99.90;;;;;;6165993;23;20013;-89
2022/06/24 02:42:59;;;;;;;5.35;3.78;;;17.20;99.90;;;;;;6145249;23;20024;-89
2022/06/24 02:45:25;;;;;;;4.28;3.78;;;17.30;99.90;;;;;;6170435;23;20521;-90
2022/06/24 02:47:54;;;;;;;4.43;4.03;;;17.30;99.90;;;;;;6142568;23;20041;-90
2022/06/24 02:50:20;;;;;;;4.05;3.65;;;17.20;99.90;;;;;;6163820;23;20028;-90
2022/06/24 02:52:45;;;;;;;4.40;3.80;;;17.40;99.90;;;;;;6161413;23;20013;-90
2022/06/24 02:55:12;;;;;;;3.95;3.63;;;17.50;99.90;;;;;;6145739;23;20346;-90
2022/06/24 02:58:02;;;;;;;4.47;4.03;;;17.50;99.90;;;;;;6169634;23;20009;-90
2022/06/24 03:00:34;;;;;;;5.88;3.92;;;17.60;99.90;;;;;;6194386;23;20040;-90
2022/06/24 03:03:00;;;;;;;4.78;3.80;;;17.60;99.90;;;;;;6140616;23;20403;-89
2022/06/24 03:05:29;;;;;;;8.05;4.45;;;17.60;99.90;;;;;;6161399;23;20017;-90
2022/06/24 03:07:56;;;;;;;4.57;4.15;;;17.70;99.90;;;;;;6172471;23;20021;-91
2022/06/24 03:10:24;;;;;;;4.40;4.00;;;17.70;99.90;;;;;;6178779;23;20024;-90
2022/06/24 03:12:51;;;;;;;4.85;4.25;;;17.70;99.90;;;;;;6163693;23;20447;-90
2022/06/24 03:15:17;;;;;;;7.40;4.40;;;17.70;99.90;;;;;;6167764;23;20013;-91
2022/06/24 03:17:49;;;;;;;4.65;3.92;;;17.60;99.90;;;;;;6140804;23;20017;-90
2022/06/24 03:20:16;;;;;;;8.00;4.38;;;18.00;99.90;;;;;;6168412;23;20463;-90
2022/06/24 03:22:42;;;;;;;5.20;4.13;;;17.60;99.90;;;;;;6136986;23;20485;-91
2022/06/24 03:25:08;;;;;;;4.20;3.80;;;17.60;99.90;;;;;;6135312;23;20017;-91
2022/06/24 03:27:35;;;;;;;4.80;4.28;;;17.70;99.90;;;;;;6164118;23;20075;-90
2022/06/24 03:30:02;;;;;;;5.95;4.38;;;17.70;99.90;;;;;;6136822;23;20021;-90
2022/06/24 03:32:28;;;;;;;4.50;4.10;;;17.70;99.90;;;;;;6161001;23;20052;-90
2022/06/24 03:34:53;;;;;;;5.72;4.70;;;17.70;99.90;;;;;;6113259;23;20075;-90
2022/06/24 03:37:19;;;;;;;4.88;3.72;;;17.80;99.90;;;;;;6165215;23;20012;-90
2022/06/24 03:39:46;;;;;;;4.90;4.40;;;17.70;99.90;;;;;;6138382;23;20009;-90
2022/06/24 03:42:16;;;;;;;4.88;3.85;;;17.70;99.90;;;;;;6113301;23;20120;-90
2022/06/24 03:44:43;;;;;;;4.90;4.47;;;17.80;99.90;;;;;;6166476;23;20312;-89
2022/06/24 03:47:09;;;;;;;5.15;4.63;;;17.80;99.90;;;;;;6167755;23;20013;-90
2022/06/24 03:49:36;;;;;;;5.10;4.50;;;17.80;99.90;;;;;;6166891;23;20059;-90
2022/06/24 03:52:02;;;;;;;6.10;4.15;;;18.30;99.90;;;;;;6162246;23;20335;-90
2022/06/24 03:54:28;;;;;;;9.63;4.88;;;17.90;99.90;;;;;;6137332;23;20124;-90
2022/06/24 03:56:54;;;;;;;4.72;4.30;;;17.90;99.90;;;;;;6116151;23;20013;-89
2022/06/24 03:59:20;;;;;;;4.50;4.10;;;17.90;99.90;;;;;;6141092;23;20013;-90
2022/06/24 04:01:49;;;;;;;6.97;4.80;;;17.90;99.90;;;;;;6162735;23;20044;-89
2022/06/24 04:04:15;;;;;;;4.43;4.03;;;17.90;99.90;;;;;;6159493;23;20024;-89
2022/06/24 04:06:52;;;;;;;7.60;5.00;;;17.90;99.90;;;;;;6163026;23;20021;-90
2022/06/24 04:09:18;;;;;;;4.93;4.43;;;17.90;99.90;;;;;;6146061;23;20024;-90
2022/06/24 04:11:47;;;;;;;5.80;4.88;;;18.00;99.90;;;;;;6138007;23;20016;-90
2022/06/24 04:15:13;;;;;;;6.15;4.53;;;18.10;99.90;;;;;;6110733;23;20021;-90
2022/06/24 04:17:03;;;;;;;7.05;4.30;;;18.10;99.90;;;;;;6170118;23;20025;-90
2022/06/24 04:19:29;;;;;;;4.97;4.47;;;18.10;99.90;;;;;;6169181;23;20036;-90
2022/06/24 04:21:56;;;;;;;6.53;4.78;;;18.10;99.90;;;;;;6135095;23;20056;-90
2022/06/24 04:24:23;;;;;;;5.13;4.22;;;18.10;99.90;;;;;;6131710;23;20159;-90
2022/06/24 04:26:49;;;;;;;5.25;4.75;;;18.20;99.90;;;;;;6114941;23;20024;-91
2022/06/24 04:29:17;;;;;;;5.10;4.07;;;18.20;99.90;;;;;;6109890;23;20092;-90
2022/06/24 04:31:43;;;;;;;5.63;4.53;;;18.30;99.90;;;;;;6140273;23;20013;-90
2022/06/24 04:34:09;;;;;;;4.72;4.22;;;18.30;99.90;;;;;;6120426;23;20024;-89
2022/06/24 04:36:36;;;;;;;5.22;4.68;;;18.40;99.90;;;;;;6121259;23;20057;-90
2022/06/24 04:39:02;;;;;;;6.00;4.70;;;18.40;99.90;;;;;;6116356;23;20013;-90
2022/06/24 04:41:29;;;;;;;5.45;4.90;;;18.40;99.90;;;;;;6160379;23;20379;-89
2022/06/24 04:43:54;;;;;;;6.03;4.50;;;18.50;99.90;;;;;;6137218;23;20028;-90
2022/06/24 04:46:21;;;;;;;5.43;4.45;;;18.60;99.90;;;;;;6159005;23;20017;-90
2022/06/24 04:48:47;;;;;;;6.60;4.53;;;18.60;99.90;;;;;;6115055;23;20064;-89
2022/06/24 04:51:13;;;;;;;6.28;4.50;;;18.70;99.90;;;;;;6112272;23;20017;-90
2022/06/24 04:53:39;;;;;;;5.15;4.50;;;18.70;99.90;;;;;;6136227;23;20055;-90
2022/06/24 04:56:45;;;;;;;6.28;4.40;;;18.90;99.90;;;;;;6150660;23;20041;-89
2022/06/24 04:59:26;;;;;;;6.03;4.32;;;18.80;99.90;;;;;;6199540;23;20051;-91
2022/06/24 05:01:52;;;;;;;4.63;4.22;;;19.10;99.90;;;;;;6136016;23;20031;-90
2022/06/24 05:07:21;;;;;;;;;;;;;;;;;;;;;
2022/06/24 05:10:14;;;;;;;6.45;4.20;;;19.40;99.90;;;;;;6154954;23;20056;-90
2022/06/24 05:12:40;;;;;;;6.10;4.55;;;19.50;99.90;;;;;;6111538;23;20017;-89
2022/06/24 05:15:06;;;;;;;4.82;4.38;;;19.50;99.90;;;;;;6113966;23;20013;-90
2022/06/24 05:17:32;;;;;;;5.65;4.25;;;19.50;99.90;;;;;;6168169;23;20013;-90
2022/06/24 05:19:58;;;;;;;4.97;4.18;;;19.60;99.90;;;;;;6117793;23;20024;-89
2022/06/24 05:22:24;;;;;;;4.95;4.53;;;19.70;99.90;;;;;;6120204;23;20051;-90
2022/06/24 05:24:50;;;;;;;4.97;4.10;;;19.70;99.90;;;;;;6111660;23;20016;-90
2022/06/24 05:27:16;;;;;;;4.32;3.92;;;19.80;99.90;;;;;;6122433;23;20013;-90
2022/06/24 05:29:42;;;;;;;5.88;4.07;;;19.50;99.90;;;;;;6141469;23;20486;-90
2022/06/24 05:32:08;;;;;;;6.85;4.40;;;20.00;99.90;;;;;;6155153;23;20028;-92
2022/06/24 05:34:34;;;;;;;6.32;4.45;;;20.00;99.90;;;;;;6122521;23;20024;-91
2022/06/24 05:37:01;;;;;;;5.38;4.30;;;20.10;99.90;;;;;;6178129;23;20021;-90
2022/06/24 05:39:27;;;;;;;5.72;4.28;;;20.10;99.90;;;;;;6121457;23;20017;-91
2022/06/24 05:41:53;;;;;;;4.38;3.80;;;20.10;99.90;;;;;;6147684;23;20013;-91
2022/06/24 05:44:19;;;;;;;4.95;4.15;;;20.10;99.90;;;;;;6141765;23;20021;-90
2022/06/24 05:46:45;;;;;;;5.80;4.28;;;20.10;99.90;;;;;;6139090;23;20036;-90
2022/06/24 05:49:10;;;;;;;5.60;4.05;;;20.10;99.90;;;;;;6116816;23;20028;-90
2022/06/24 05:51:36;;;;;;;6.10;4.43;;;20.10;99.90;;;;;;6164100;23;20009;-91
2022/06/24 05:57:05;;;;;;;6.97;4.57;;;20.40;99.90;;;;;;6153698;23;20398;-91
2022/06/24 05:59:31;;;;;;;4.78;4.10;;;20.50;99.90;;;;;;6117305;23;20234;-91
2022/06/24 06:01:57;;;;;;;5.22;4.72;;;20.60;99.90;;;;;;6091161;23;20024;-90
2022/06/24 06:04:23;;;;;;;5.72;4.43;;;20.40;99.90;;;;;;6094367;23;20013;-91
2022/06/24 06:06:51;;;;;;;5.32;4.78;;;20.50;99.90;;;;;;6117212;23;20071;-90
2022/06/24 06:09:17;;;;;;;6.90;4.97;;;20.50;99.90;;;;;;6145486;23;20013;-90
2022/06/24 06:11:43;;;;;;;8.15;5.22;;;20.40;99.90;;;;;;6101268;23;20066;-92
2022/06/24 06:14:12;;;;;;;5.85;5.10;;;20.30;99.90;;;;;;6122443;23;20072;-92
2022/06/24 06:16:38;;;;;;;9.45;5.03;;;20.20;99.90;;;;;;6144943;23;20013;-91
2022/06/24 06:19:04;;;;;;;8.48;5.90;;;20.10;99.90;;;;;;6123228;23;20065;-92
2022/06/24 06:21:31;;;;;;;12.57;7.45;;;20.10;99.90;;;;;;6131490;23;20020;-93
2022/06/24 06:23:59;;;;;;;11.23;7.18;;;19.90;99.90;;;;;;6107474;23;20088;-93
2022/06/24 06:26:29;;;;;;;14.30;7.97;;;19.60;99.90;;;;;;6126652;23;20044;-92
2022/06/24 06:28:55;;;;;;;11.70;7.85;;;19.50;99.90;;;;;;6094357;23;20021;-92
2022/06/24 06:31:21;;;;;;;9.93;8.15;;;19.10;99.90;;;;;;6120711;23;20148;-93
2022/06/24 06:33:47;;;;;;;12.25;8.10;;;18.90;99.90;;;;;;6118707;23;20013;-93
2022/06/24 06:36:14;;;;;;;13.63;9.80;;;18.80;99.90;;;;;;6093258;23;20450;-92
2022/06/24 06:38:40;;;;;;;14.05;9.57;;;18.70;99.90;;;;;;6120762;23;20017;-93
2022/06/24 06:43:42;;;;;;;12.35;9.27;;;18.60;99.90;;;;;;6216125;22;20028;-87
2022/06/24 06:46:12;;;;;;;12.30;8.60;;;18.60;99.90;;;;;;6164072;23;20349;-88
2022/06/24 06:48:39;;;;;;;9.75;8.73;;;18.60;99.90;;;;;;6165136;23;20067;-88
2022/06/24 06:51:05;;;;;;;10.73;9.57;;;18.50;99.90;;;;;;6214529;23;20087;-88
2022/06/24 06:53:31;;;;;;;12.73;10.45;;;18.60;99.90;;;;;;6189836;23;20017;-88
2022/06/24 06:55:57;;;;;;;11.43;10.23;;;18.70;99.90;;;;;;6164870;23;20012;-89
2022/06/24 06:58:23;;;;;;;15.63;11.48;;;18.90;99.90;;;;;;6189351;23;20016;-88
2022/06/24 07:00:49;;;;;;;14.38;10.25;;;18.90;99.90;;;;;;6190422;23;20008;-87
2022/06/24 07:03:17;;;;;;;16.80;11.00;;;19.00;99.90;;;;;;6214654;23;20071;-90
2022/06/24 07:05:44;;;;;;;11.98;9.85;;;19.10;99.90;;;;;;6215241;23;20020;-89
2022/06/24 07:08:11;;;;;;;17.08;10.77;;;19.20;99.90;;;;;;6164971;23;20062;-89
2022/06/24 07:10:40;;;;;;;16.60;11.25;;;19.10;99.90;;;;;;6190247;23;20024;-89
2022/06/24 07:13:06;;;;;;;14.70;11.38;;;19.10;99.90;;;;;;6189291;23;20028;-89
2022/06/24 07:15:32;;;;;;;16.33;10.52;;;19.10;99.90;;;;;;6165256;23;20330;-89
2022/06/24 07:17:59;;;;;;;13.20;10.52;;;19.20;99.90;;;;;;6190816;23;20449;-89
2022/06/24 07:20:26;;;;;;;12.45;11.05;;;19.30;99.90;;;;;;6189909;23;20013;-88
2022/06/24 07:22:52;;;;;;;14.50;10.13;;;19.20;99.90;;;;;;6188973;23;20051;-89
2022/06/24 07:25:18;;;;;;;16.25;12.13;;;19.40;99.90;;;;;;6188762;23;20016;-88
2022/06/24 07:27:43;;;;;;;15.45;11.00;;;19.40;99.90;;;;;;6164762;23;20012;-87
2022/06/24 07:30:10;;;;;;;15.00;12.63;;;19.50;99.90;;;;;;6189213;23;20016;-91
2022/06/24 07:32:36;;;;;;;15.88;11.65;;;19.60;99.90;;;;;;6164745;23;20066;-90
2022/06/24 07:35:02;;;;;;;14.43;11.95;;;18.30;99.90;;;;;;6165140;23;20785;-90
2022/06/24 07:37:28;;;;;;;14.05;11.65;;;19.60;99.90;;;;;;6164207;23;20070;-90
2022/06/24 07:39:53;;;;;;;16.70;11.77;;;19.50;99.90;;;;;;6166592;23;20016;-90
2022/06/24 07:42:19;;;;;;;31.10;11.30;;;19.50;99.90;;;;;;6139732;23;20023;-88
2022/06/24 07:44:45;;;;;;;12.60;10.10;;;19.60;99.90;;;;;;6163590;23;20017;-92
2022/06/24 07:47:11;;;;;;;15.98;11.20;;;19.60;99.90;;;;;;6133577;23;20012;-89
2022/06/24 07:49:37;;;;;;;15.85;11.88;;;19.80;99.90;;;;;;6163993;23;20058;-89
2022/06/24 07:52:04;;;;;;;16.30;11.65;;;19.70;99.90;;;;;;6163260;23;20016;-90
2022/06/24 07:54:31;;;;;;;14.35;12.02;;;19.80;99.90;;;;;;6162570;23;20016;-89
2022/06/24 07:56:57;;;;;;;16.70;12.75;;;19.90;99.90;;;;;;6158452;23;20020;-89
2022/06/24 07:59:31;;;;;;;18.02;13.20;;;19.90;99.90;;;;;;6112494;23;20016;-89
2022/06/24 08:01:58;;;;;;;14.57;11.48;;;19.90;99.90;;;;;;6162896;23;20016;-89
2022/06/24 08:04:25;;;;;;;14.85;10.63;;;20.10;99.90;;;;;;6162225;23;20122;-90
2022/06/24 08:06:52;;;;;;;10.73;8.98;;;20.20;99.90;;;;;;6163020;23;20017;-89
2022/06/24 08:09:23;;;;;;;13.88;9.27;;;20.00;99.90;;;;;;6164722;23;20393;-91
2022/06/24 08:11:52;;;;;;;11.57;9.10;;;20.10;99.90;;;;;;6166200;23;20017;-91
2022/06/24 08:14:18;;;;;;;13.52;9.23;;;20.20;99.90;;;;;;6161747;23;20020;-89
2022/06/24 08:16:44;;;;;;;12.82;9.55;;;20.20;99.90;;;;;;6162619;23;20061;-90
2022/06/24 08:19:11;;;;;;;15.60;9.75;;;20.40;99.90;;;;;;6166105;23;20391;-92
2022/06/24 08:22:14;;;;;;;11.73;8.25;;;20.20;99.90;;;;;;6164406;23;20013;-93
2022/06/24 08:24:40;;;;;;;8.75;7.05;;;20.30;99.90;;;;;;6163077;23;20009;-89
2022/06/24 08:27:20;;;;;;;7.75;6.75;;;20.60;99.90;;;;;;6121413;23;20043;-92
2022/06/24 08:30:04;;;;;;;11.13;7.10;;;20.40;99.90;;;;;;6137436;23;20020;-91
2022/06/24 08:32:33;;;;;;;8.98;6.32;;;20.50;99.90;;;;;;6141202;23;20333;-91
2022/06/24 08:34:59;;;;;;;8.93;7.25;;;20.70;99.90;;;;;;6165859;23;20020;-92
2022/06/24 08:37:24;;;;;;;8.45;6.40;;;20.70;99.90;;;;;;6140286;23;20012;-90
2022/06/24 08:39:50;;;;;;;8.45;6.38;;;20.60;99.90;;;;;;6164447;23;20040;-90
2022/06/24 08:42:25;;;;;;;8.98;6.30;;;20.50;99.90;;;;;;6152091;23;20023;-90
2022/06/24 08:44:51;;;;;;;9.10;6.40;;;20.70;99.90;;;;;;6194254;23;20009;-91
2022/06/24 08:47:17;;;;;;;6.97;6.00;;;20.70;99.90;;;;;;6166709;23;20021;-89
2022/06/24 08:49:43;;;;;;;7.15;5.70;;;20.70;99.90;;;;;;6188812;23;20013;-88
2022/06/24 08:52:11;;;;;;;7.13;6.00;;;20.90;99.90;;;;;;6166840;23;20130;-88
2022/06/24 08:54:43;;;;;;;6.93;5.38;;;21.10;99.90;;;;;;6191677;23;20092;-89
2022/06/24 08:57:12;;;;;;;7.50;5.30;;;21.40;99.90;;;;;;6192976;23;20067;-89
2022/06/24 08:59:38;;;;;;;7.15;5.20;;;21.30;99.90;;;;;;6191971;23;20009;-90
2022/06/24 09:02:04;;;;;;;5.70;5.20;;;21.30;99.90;;;;;;6190541;23;20127;-89
2022/06/24 09:04:33;;;;;;;5.80;5.30;;;21.00;99.90;;;;;;6190394;23;20379;-90
2022/06/24 09:07:00;;;;;;;6.65;5.03;;;21.10;99.90;;;;;;6192177;23;20333;-89
2022/06/24 09:09:28;;;;;;;7.20;5.45;;;21.10;99.90;;;;;;6168021;23;20027;-89
2022/06/24 09:12:00;;;;;;;10.30;6.25;;;20.90;99.90;;;;;;6191224;23;20017;-89
2022/06/24 09:14:44;;;;;;;8.70;6.72;;;20.80;99.90;;;;;;6167621;23;20017;-90
2022/06/24 09:17:11;;;;;;;11.65;8.73;;;20.50;99.90;;;;;;6193819;23;20013;-89
2022/06/24 09:19:37;;;;;;;10.15;6.70;;;20.80;99.90;;;;;;6191073;23;20016;-90
2022/06/24 09:22:03;;;;;;;8.43;7.55;;;20.80;99.90;;;;;;6190758;23;20012;-89
2022/06/24 09:24:47;;;;;;;8.48;6.68;;;20.90;99.90;;;;;;6165937;23;20095;-91
2022/06/24 09:27:14;;;;;;;9.05;6.60;;;20.90;99.90;;;;;;6191481;23;20012;-89
2022/06/24 09:29:48;;;;;;;7.78;6.97;;;20.90;99.90;;;;;;6213861;23;20015;-90
2022/06/24 09:32:14;;;;;;;7.47;6.63;;;20.90;99.90;;;;;;6165250;23;20009;-89
2022/06/24 09:34:58;;;;;;;9.52;7.40;;;20.90;99.90;;;;;;6164752;23;20044;-89
2022/06/24 09:37:41;;;;;;;9.63;7.23;;;20.80;99.90;;;;;;6189806;23;20020;-89
2022/06/24 09:40:19;;;;;;;7.83;6.97;;;20.70;99.90;;;;;;6190044;23;20239;-90
2022/06/24 09:42:55;;;;;;;8.48;5.15;;;20.80;99.90;;;;;;6188643;23;20017;-89
2022/06/24 09:45:23;;;;;;;6.85;4.97;;;20.50;99.90;;;;;;6189903;23;20017;-89
2022/06/24 09:47:51;;;;;;;6.32;4.93;;;20.60;99.90;;;;;;6190124;23;20052;-91
2022/06/24 09:50:19;;;;;;;6.50;5.28;;;20.50;99.90;;;;;;6193066;23;20508;-92
2022/06/24 09:52:45;;;;;;;7.22;4.75;;;20.30;99.90;;;;;;6194846;23;20017;-89
2022/06/24 09:55:11;;;;;;;6.15;5.07;;;20.30;99.90;;;;;;6170190;23;20019;-88
2022/06/24 09:57:40;;;;;;;7.47;5.10;;;20.40;99.90;;;;;;6177095;23;20043;-88
2022/06/24 10:02:53;;;;;;;7.20;5.90;;;20.40;99.90;;;;;;6218391;23;20051;-88
2022/06/24 10:05:20;;;;;;;7.75;5.13;;;20.50;99.90;;;;;;6190169;23;20020;-88
2022/06/24 10:07:48;;;;;;;7.65;5.05;;;20.10;99.90;;;;;;6190656;23;20467;-89
2022/06/24 10:10:16;;;;;;;10.90;5.55;;;20.20;99.90;;;;;;6189304;23;20333;-89
2022/06/24 10:12:49;;;;;;;8.05;5.60;;;20.20;99.90;;;;;;6165514;23;20479;-90
2022/06/24 10:15:14;;;;;;;6.22;5.30;;;20.30;99.90;;;;;;6192629;23;20013;-88
2022/06/24 10:17:43;;;;;;;8.25;5.57;;;20.30;99.90;;;;;;6164696;23;20008;-89
2022/06/24 10:20:13;;;;;;;8.25;5.18;;;20.10;99.90;;;;;;6189584;23;20012;-89
2022/06/24 10:22:46;;;;;;;6.78;4.97;;;20.20;99.90;;;;;;6189408;23;20044;-90
2022/06/24 10:25:22;;;;;;;6.78;5.28;;;20.20;99.90;;;;;;6190187;23;20013;-90
2022/06/24 10:28:00;;;;;;;9.10;5.63;;;20.10;99.90;;;;;;6188303;23;20398;-90
2022/06/24 10:30:55;;;;;;;8.38;5.32;;;19.80;99.90;;;;;;6190658;23;20012;-92
2022/06/24 10:33:29;;;;;;;9.75;5.57;;;20.10;99.90;;;;;;6190413;23;20396;-88
2022/06/24 10:36:00;;;;;;;7.22;5.47;;;20.00;99.90;;;;;;6190466;23;20024;-91
2022/06/24 10:38:41;;;;;;;6.60;5.72;;;19.90;99.90;;;;;;6189641;23;20008;-90
2022/06/24 10:41:12;;;;;;;8.77;5.72;;;19.80;99.90;;;;;;6188935;23;20012;-89
2022/06/24 10:43:45;;;;;;;8.95;5.72;;;19.90;99.90;;;;;;6188514;23;20016;-91
2022/06/24 10:46:17;;;;;;;6.93;5.35;;;19.90;99.90;;;;;;6190542;23;20013;-91
2022/06/24 10:48:51;;;;;;;8.15;5.45;;;19.50;99.90;;;;;;6190820;23;20017;-91
2022/06/24 10:51:22;;;;;;;9.90;5.63;;;19.70;99.90;;;;;;6189730;23;20449;-91
2022/06/24 10:54:06;;;;;;;7.03;5.38;;;19.60;99.90;;;;;;6164906;23;20527;-88
2022/06/24 10:56:50;;;;;;;5.93;5.32;;;19.40;99.90;;;;;;6189795;23;20019;-90
2022/06/24 10:59:20;;;;;;;7.95;5.10;;;19.50;99.90;;;;;;6188341;23;20517;-91
2022/06/24 11:01:50;;;;;;;6.35;5.35;;;19.50;99.90;;;;;;6190551;23;20437;-92
2022/06/24 11:04:43;;;;;;;7.85;5.65;;;19.70;99.90;;;;;;6189228;23;20012;-91
2022/06/24 11:07:34;;;;;;;12.43;6.50;;;19.30;99.90;;;;;;6189204;23;20008;-89
2022/06/24 11:14:26;;;;;;;13.98;6.25;;;19.20;99.90;;;;;;6176846;23;20035;-90
2022/06/24 11:17:28;;;;;;;6.35;5.22;;;19.00;99.90;;;;;;6189186;23;20024;-92
2022/06/24 11:20:12;;;;;;;6.72;4.68;;;19.10;99.90;;;;;;6188569;23;20023;-91
2022/06/24 11:23:15;;;;;;;7.32;4.97;;;19.40;99.90;;;;;;6189807;23;20015;-92
2022/06/24 11:26:20;;;;;;;7.38;4.93;;;19.30;99.90;;;;;;6163323;23;20013;-92
2022/06/24 11:29:05;;;;;;;7.72;4.65;;;19.50;99.90;;;;;;6189119;23;20095;-91
2022/06/24 11:31:40;;;;;;;8.75;5.57;;;19.40;99.90;;;;;;6190352;23;20020;-92
2022/06/24 11:34:49;;;;;;;5.63;4.80;;;19.40;99.90;;;;;;6189466;23;20016;-93
2022/06/24 11:41:46;;;;;;;4.28;2.42;;;18.20;99.90;;;;;;6091226;23;20698;-92
2022/06/24 11:48:52;;;;;;;2.92;2.17;;;18.80;99.90;;;;;;6009256;23;20060;-93
2022/06/24 11:51:48;;;;;;;4.65;2.45;;;18.50;99.90;;;;;;5806320;24;20453;-91
2022/06/24 11:54:16;;;;;;;4.47;2.90;;;18.80;99.90;;;;;;5928480;23;20060;-91
2022/06/24 11:56:43;;;;;;;3.45;2.55;;;18.30;99.90;;;;;;5939912;23;20102;-92
2022/06/24 11:59:12;;;;;;;3.63;2.70;;;18.10;99.90;;;;;;6163624;23;20012;-91
2022/06/24 12:01:44;;;;;;;3.83;2.78;;;18.70;99.90;;;;;;6188544;23;20020;-91
2022/06/24 12:04:12;;;;;;;5.07;2.95;;;18.60;99.90;;;;;;6165810;23;20012;-92
2022/06/24 12:06:40;;;;;;;2.90;2.70;;;18.60;99.90;;;;;;6188340;23;20016;-91
2022/06/24 12:09:07;;;;;;;4.50;2.75;;;18.00;99.90;;;;;;6189395;23;20028;-92
2022/06/24 12:11:40;;;;;;;5.20;3.58;;;18.70;99.90;;;;;;6189376;23;20433;-91
2022/06/24 12:14:11;;;;;;;3.90;3.40;;;18.00;99.90;;;;;;6189494;23;20059;-92
2022/06/24 12:17:05;;;;;;;4.68;3.40;;;18.10;99.90;;;;;;6187885;23;20256;-91
2022/06/24 12:20:04;;;;;;;4.57;3.92;;;18.50;99.90;;;;;;6210009;23;20023;-92
2022/06/24 12:22:30;;;;;;;4.70;3.70;;;19.00;99.90;;;;;;6188994;23;20044;-93
2022/06/24 12:25:10;;;;;;;6.07;3.70;;;18.50;99.90;;;;;;6188700;23;20082;-91
2022/06/24 12:27:38;;;;;;;4.72;3.17;;;19.40;99.90;;;;;;6188439;23;20051;-90
2022/06/24 12:30:05;;;;;;;4.05;3.50;;;19.40;99.90;;;;;;6188281;23;20096;-90
2022/06/24 12:32:51;;;;;;;6.88;3.63;;;19.00;99.90;;;;;;6187670;23;20012;-91
2022/06/24 12:35:30;;;;;;;5.68;3.67;;;18.60;99.90;;;;;;6186691;23;20017;-90
2022/06/24 12:37:59;;;;;;;5.15;3.67;;;19.20;99.90;;;;;;6186685;23;20028;-90
2022/06/24 12:40:25;;;;;;;3.65;3.17;;;19.10;99.90;;;;;;6187900;23;20012;-90
2022/06/24 12:43:16;;;;;;;3.75;3.25;;;19.40;99.90;;;;;;6186977;23;20023;-90
2022/06/24 12:45:44;;;;;;;4.97;3.55;;;18.60;99.90;;;;;;6211882;23;20063;-89
2022/06/24 12:51:05;;;;;;;4.30;3.55;;;19.30;99.90;;;;;;6212227;23;20071;-89
2022/06/24 12:53:32;;;;;;;3.88;3.30;;;19.50;99.90;;;;;;6186913;23;20127;-91
2022/06/24 12:55:59;;;;;;;3.67;3.30;;;19.10;99.90;;;;;;6188294;23;20013;-89
2022/06/24 12:58:27;;;;;;;6.72;3.53;;;20.00;99.90;;;;;;6188397;23;20008;-89
2022/06/24 13:00:53;;;;;;;4.47;3.60;;;19.10;99.90;;;;;;6162824;23;20075;-89
2022/06/24 13:03:20;;;;;;;3.67;3.15;;;19.80;99.90;;;;;;6188051;23;20012;-89
2022/06/24 13:05:46;;;;;;;6.00;4.07;;;19.50;99.90;;;;;;6162884;23;20023;-89
2022/06/24 13:08:13;;;;;;;5.63;3.75;;;20.80;99.90;;;;;;6188887;23;20039;-88
2022/06/24 13:10:39;;;;;;;4.20;3.50;;;20.30;99.90;;;;;;6163701;23;20017;-90
2022/06/24 13:13:08;;;;;;;6.18;3.83;;;20.70;99.90;;;;;;6188263;23;20013;-89
2022/06/24 13:15:35;;;;;;;4.28;3.55;;;20.80;99.90;;;;;;6187925;23;20522;-89
2022/06/24 13:18:01;;;;;;;5.53;4.07;;;20.90;99.90;;;;;;6187469;23;20048;-89
2022/06/24 13:20:27;;;;;;;5.93;3.95;;;20.50;99.90;;;;;;6188210;23;20334;-89
2022/06/24 13:22:58;;;;;;;4.55;4.15;;;20.00;99.90;;;;;;6162909;23;20024;-90
2022/06/24 13:25:25;;;;;;;5.13;4.03;;;19.90;99.90;;;;;;6188111;23;20561;-89
2022/06/24 13:27:51;;;;;;;4.38;3.97;;;19.60;99.90;;;;;;6188787;23;20095;-89
2022/06/24 13:30:18;;;;;;;6.60;4.18;;;21.10;99.90;;;;;;6190247;23;20012;-89
2022/06/24 13:32:47;;;;;;;4.90;4.40;;;20.60;99.90;;;;;;6138358;23;20106;-88
2022/06/24 13:35:13;;;;;;;5.55;4.10;;;20.00;99.90;;;;;;6164796;23;20020;-88
2022/06/24 13:37:42;;;;;;;4.95;4.20;;;20.90;99.90;;;;;;6190222;23;20016;-88
2022/06/24 13:40:16;;;;;;;6.22;4.78;;;21.30;99.90;;;;;;6166961;23;20643;-89